Time;durP1;ratioP1;P1;durP2;ratioP2;P2;SDS_P1;SDS_P2;PMS_P1;PMS_P2;Temp;Humidity;BMP_temperature;BMP_pressure;BME280_temperature;BME280_humidity;BME280_pressure;Samples;Min_cycle;Max_cycle;Signal;HPM_P1;HPM_P2
2023/05/20 00:00:10;;;;;;;5.60;2.75;;;12.40;73.20;;;;;;5063911;28;20056;-70
2023/05/20 00:02:38;;;;;;;5.07;2.70;;;12.40;73.20;;;;;;5058831;28;20049;-70
2023/05/20 00:05:08;;;;;;;5.38;2.40;;;12.40;73.30;;;;;;5056795;28;20040;-70
2023/05/20 00:07:34;;;;;;;5.25;2.60;;;12.30;73.20;;;;;;5061222;28;20055;-61
2023/05/20 00:10:01;;;;;;;5.97;2.55;;;12.40;73.30;;;;;;5064357;28;20049;-61
2023/05/20 00:12:28;;;;;;;6.03;2.60;;;12.30;73.50;;;;;;5058182;28;20047;-69
2023/05/20 00:14:55;;;;;;;4.18;2.22;;;12.30;73.70;;;;;;5062099;28;20044;-68
2023/05/20 00:17:22;;;;;;;4.55;2.53;;;12.30;73.70;;;;;;5059254;28;20049;-70
2023/05/20 00:19:49;;;;;;;6.05;2.58;;;12.30;73.70;;;;;;5067282;28;20045;-71
2023/05/20 00:22:18;;;;;;;3.53;2.10;;;12.20;73.90;;;;;;5068933;28;20049;-67
2023/05/20 00:24:45;;;;;;;6.35;2.88;;;12.20;74.10;;;;;;5061857;28;20045;-68
2023/05/20 00:27:11;;;;;;;5.20;3.00;;;12.20;74.10;;;;;;5067900;28;20482;-63
2023/05/20 00:29:38;;;;;;;5.78;2.63;;;12.20;74.20;;;;;;5047088;28;20123;-62
2023/05/20 00:32:06;;;;;;;5.45;2.60;;;12.10;74.20;;;;;;5058973;28;20049;-70
2023/05/20 00:34:33;;;;;;;4.78;2.33;;;12.20;74.30;;;;;;5061073;28;20098;-71
2023/05/20 00:37:00;;;;;;;5.78;2.80;;;12.20;74.30;;;;;;5068734;28;20142;-67
2023/05/20 00:39:29;;;;;;;9.10;2.60;;;12.20;74.50;;;;;;5045561;28;20041;-67
2023/05/20 00:41:59;;;;;;;4.93;2.72;;;12.10;74.60;;;;;;5046896;28;20052;-62
2023/05/20 00:44:26;;;;;;;5.10;2.55;;;12.10;74.60;;;;;;5061309;28;20037;-60
2023/05/20 00:46:53;;;;;;;6.25;2.90;;;12.10;74.80;;;;;;5067312;28;20037;-62
2023/05/20 00:49:21;;;;;;;6.75;2.85;;;12.10;74.80;;;;;;5064033;28;20572;-62
2023/05/20 00:51:48;;;;;;;4.03;2.47;;;12.00;74.80;;;;;;5059185;28;20048;-61
2023/05/20 00:54:15;;;;;;;4.93;2.88;;;12.00;74.70;;;;;;5063231;28;20146;-61
2023/05/20 00:56:44;;;;;;;5.68;2.78;;;12.00;74.90;;;;;;5057574;28;20107;-62
2023/05/20 00:59:12;;;;;;;5.35;2.80;;;12.00;74.90;;;;;;5067532;28;20048;-62
2023/05/20 01:01:38;;;;;;;6.28;2.60;;;12.00;75.20;;;;;;5067271;28;20060;-74
2023/05/20 01:04:05;;;;;;;4.88;2.38;;;12.00;75.20;;;;;;5068241;28;20040;-75
2023/05/20 01:06:33;;;;;;;5.38;2.58;;;12.00;75.40;;;;;;5066956;28;20045;-69
2023/05/20 01:09:00;;;;;;;5.75;2.65;;;12.00;75.60;;;;;;5065392;28;20072;-70
2023/05/20 01:11:34;;;;;;;4.78;2.30;;;12.00;75.50;;;;;;5063714;28;20045;-69
2023/05/20 01:14:06;;;;;;;5.90;2.55;;;12.00;75.60;;;;;;5064765;28;20049;-71
2023/05/20 01:16:35;;;;;;;8.02;2.58;;;12.00;75.70;;;;;;5042167;28;20415;-67
2023/05/20 01:19:06;;;;;;;4.75;2.20;;;12.10;75.60;;;;;;5068843;28;20044;-67
2023/05/20 01:21:35;;;;;;;4.93;2.13;;;12.10;75.50;;;;;;5047304;28;20484;-68
2023/05/20 01:24:04;;;;;;;4.78;2.63;;;12.20;75.50;;;;;;5045362;28;20044;-70
2023/05/20 01:26:32;;;;;;;5.53;2.57;;;12.20;75.30;;;;;;5065910;28;20044;-61
2023/05/20 01:29:03;;;;;;;4.60;2.60;;;12.20;75.30;;;;;;5065194;28;20149;-62
2023/05/20 01:31:35;;;;;;;4.60;2.45;;;12.20;75.40;;;;;;5064273;28;20041;-69
2023/05/20 01:34:02;;;;;;;4.15;2.05;;;12.20;75.50;;;;;;5065791;28;20066;-66
2023/05/20 01:36:31;;;;;;;3.80;2.17;;;12.20;75.50;;;;;;5066273;28;20080;-66
2023/05/20 01:38:58;;;;;;;5.85;2.50;;;12.20;75.60;;;;;;5066988;28;20048;-68
2023/05/20 01:41:28;;;;;;;5.00;2.55;;;12.20;75.50;;;;;;5050470;28;20500;-69
2023/05/20 01:43:55;;;;;;;3.77;2.20;;;12.20;75.50;;;;;;5063928;28;20135;-70
2023/05/20 01:46:22;;;;;;;5.65;2.60;;;12.30;75.80;;;;;;5047635;28;20124;-66
2023/05/20 01:48:49;;;;;;;4.72;2.60;;;12.30;75.90;;;;;;5053776;28;20055;-66
2023/05/20 01:51:16;;;;;;;5.60;2.55;;;12.30;75.90;;;;;;5054651;28;20052;-70
2023/05/20 01:53:43;;;;;;;6.22;2.40;;;12.30;76.00;;;;;;5054523;28;20080;-69
2023/05/20 01:56:10;;;;;;;4.55;2.05;;;12.30;76.00;;;;;;5056235;28;20033;-70
2023/05/20 01:58:38;;;;;;;6.45;2.60;;;12.30;76.10;;;;;;5057950;28;20049;-70
2023/05/20 02:01:05;;;;;;;4.75;2.17;;;12.30;76.10;;;;;;5059125;28;20044;-67
2023/05/20 02:03:32;;;;;;;3.15;2.00;;;12.40;76.20;;;;;;5062802;28;20055;-67
2023/05/20 02:05:59;;;;;;;5.88;2.70;;;12.40;76.00;;;;;;5047233;28;20045;-66
2023/05/20 02:08:26;;;;;;;4.50;2.75;;;12.40;76.10;;;;;;5044952;28;20132;-67
2023/05/20 02:10:53;;;;;;;5.70;2.78;;;12.40;76.40;;;;;;5063779;28;20060;-61
2023/05/20 02:13:20;;;;;;;5.10;2.40;;;12.40;76.40;;;;;;5062687;28;20075;-61
2023/05/20 02:15:50;;;;;;;4.68;2.53;;;12.40;76.20;;;;;;5046115;28;20067;-75
2023/05/20 02:18:18;;;;;;;5.20;2.50;;;12.40;76.60;;;;;;5044565;28;20120;-75
2023/05/20 02:20:45;;;;;;;5.80;2.60;;;12.40;76.50;;;;;;5048059;28;20121;-70
2023/05/20 02:23:12;;;;;;;4.60;2.53;;;12.40;76.50;;;;;;5064141;28;20044;-69
2023/05/20 02:25:39;;;;;;;5.20;2.20;;;12.40;76.60;;;;;;5056459;28;20068;-61
2023/05/20 02:28:09;;;;;;;5.55;2.75;;;12.50;76.90;;;;;;5064700;28;20487;-63
2023/05/20 02:30:36;;;;;;;5.60;2.50;;;12.50;77.00;;;;;;5043279;28;20046;-78
2023/05/20 02:33:05;;;;;;;4.28;2.78;;;12.40;77.00;;;;;;5066562;28;20061;-74
2023/05/20 02:35:32;;;;;;;4.82;2.45;;;12.50;77.10;;;;;;5060716;28;20106;-70
2023/05/20 02:37:59;;;;;;;3.88;2.05;;;12.50;77.30;;;;;;5066967;28;20044;-70
2023/05/20 02:40:26;;;;;;;4.82;2.42;;;12.50;77.30;;;;;;5047223;28;20048;-71
2023/05/20 02:42:54;;;;;;;4.22;2.03;;;12.50;77.30;;;;;;5066100;28;20450;-70
2023/05/20 02:45:21;;;;;;;6.65;2.45;;;12.50;77.30;;;;;;5047424;28;20371;-76
2023/05/20 02:47:48;;;;;;;4.95;2.20;;;12.50;77.50;;;;;;5068451;28;20084;-74
2023/05/20 02:50:17;;;;;;;3.90;1.98;;;12.50;77.30;;;;;;5049155;28;20051;-75
2023/05/20 02:52:47;;;;;;;3.75;2.10;;;12.50;77.30;;;;;;5037671;28;20044;-74
2023/05/20 02:55:15;;;;;;;4.57;2.55;;;12.60;77.40;;;;;;5046271;28;20478;-74
2023/05/20 02:57:42;;;;;;;5.60;2.70;;;12.60;77.40;;;;;;5047020;28;20504;-76
2023/05/20 03:00:10;;;;;;;6.55;2.42;;;12.60;77.40;;;;;;5045252;28;20071;-75
2023/05/20 03:02:37;;;;;;;6.88;2.42;;;12.60;77.60;;;;;;5064772;28;20122;-74
2023/05/20 03:05:05;;;;;;;4.90;2.63;;;12.60;77.70;;;;;;5058973;28;20519;-74
2023/05/20 03:07:35;;;;;;;5.88;2.40;;;12.60;77.60;;;;;;5071878;28;20094;-60
2023/05/20 03:10:03;;;;;;;5.85;2.50;;;12.70;77.20;;;;;;5043547;28;20414;-61
2023/05/20 03:12:31;;;;;;;5.07;2.50;;;12.60;77.70;;;;;;5064918;28;20041;-74
2023/05/20 03:14:59;;;;;;;8.23;2.45;;;12.70;77.80;;;;;;5063646;28;20056;-77
2023/05/20 03:17:26;;;;;;;5.47;2.65;;;12.70;77.40;;;;;;5049762;28;20065;-66
2023/05/20 03:19:53;;;;;;;6.53;2.47;;;12.70;77.50;;;;;;5064972;28;20037;-67
2023/05/20 03:22:20;;;;;;;5.70;2.28;;;12.70;77.70;;;;;;5068739;28;20056;-62
2023/05/20 03:24:48;;;;;;;5.25;2.67;;;12.70;77.60;;;;;;5051472;28;20518;-61
2023/05/20 03:27:15;;;;;;;5.00;2.55;;;12.80;77.80;;;;;;5040113;28;20049;-68
2023/05/20 03:29:42;;;;;;;4.30;2.55;;;12.80;77.40;;;;;;5050129;28;20186;-68
2023/05/20 03:32:09;;;;;;;5.15;2.65;;;12.80;77.40;;;;;;5049374;28;20460;-61
2023/05/20 03:34:38;;;;;;;5.15;2.72;;;12.80;77.20;;;;;;5038820;28;20052;-60
2023/05/20 03:37:05;;;;;;;6.65;2.88;;;12.90;76.80;;;;;;5047999;28;20113;-61
2023/05/20 03:39:32;;;;;;;5.00;2.60;;;12.90;76.80;;;;;;5066042;28;20509;-61
2023/05/20 03:42:01;;;;;;;4.68;2.75;;;12.90;76.50;;;;;;5050408;28;20098;-75
2023/05/20 03:44:28;;;;;;;5.80;2.92;;;12.90;76.90;;;;;;5067227;28;20059;-74
2023/05/20 03:46:55;;;;;;;7.47;3.25;;;12.90;76.90;;;;;;5070450;28;20052;-76
2023/05/20 03:49:22;;;;;;;6.90;3.28;;;13.00;77.00;;;;;;5043640;28;20052;-74
2023/05/20 03:51:49;;;;;;;4.30;2.80;;;13.00;76.70;;;;;;5040096;28;20516;-77
2023/05/20 03:54:16;;;;;;;4.68;2.63;;;13.00;76.60;;;;;;5047270;28;20051;-76
2023/05/20 03:56:48;;;;;;;5.65;3.17;;;13.10;76.60;;;;;;5051030;28;20052;-76
2023/05/20 03:59:16;;;;;;;6.82;3.00;;;13.10;76.70;;;;;;5048881;28;20060;-75
2023/05/20 04:01:43;;;;;;;4.82;3.10;;;13.10;76.80;;;;;;5049970;28;20043;-76
2023/05/20 04:04:10;;;;;;;5.05;2.70;;;13.10;76.80;;;;;;5047995;28;20052;-78
2023/05/20 04:06:37;;;;;;;4.57;2.75;;;13.10;76.90;;;;;;5042584;28;20036;-66
2023/05/20 04:09:04;;;;;;;4.28;2.60;;;13.10;76.10;;;;;;5049673;28;20048;-69
2023/05/20 04:11:31;;;;;;;6.10;3.20;;;13.10;76.50;;;;;;5047101;28;20072;-68
2023/05/20 04:13:59;;;;;;;5.28;2.92;;;13.10;76.10;;;;;;5062770;28;20052;-69
2023/05/20 04:16:31;;;;;;;5.95;2.85;;;13.20;76.60;;;;;;5045347;28;20064;-61
2023/05/20 04:18:59;;;;;;;6.43;3.15;;;13.20;76.80;;;;;;5046565;28;20068;-62
2023/05/20 04:21:27;;;;;;;6.53;2.85;;;13.20;76.60;;;;;;5067918;28;20500;-67
2023/05/20 04:23:54;;;;;;;6.70;3.50;;;13.20;76.10;;;;;;5048688;28;20064;-68
2023/05/20 04:26:22;;;;;;;5.32;3.03;;;13.20;76.60;;;;;;5065615;28;20090;-61
2023/05/20 04:28:50;;;;;;;4.93;2.97;;;13.20;76.90;;;;;;5039605;28;20040;-62
2023/05/20 04:31:19;;;;;;;6.10;3.38;;;13.20;76.80;;;;;;5069197;28;20042;-79
2023/05/20 04:33:49;;;;;;;5.38;2.97;;;13.30;76.90;;;;;;5061194;28;20377;-76
2023/05/20 04:36:16;;;;;;;5.35;2.80;;;13.30;76.80;;;;;;5047163;28;20086;-71
2023/05/20 04:38:43;;;;;;;6.28;3.22;;;13.30;76.70;;;;;;5043634;28;20099;-70
2023/05/20 04:41:10;;;;;;;6.93;2.92;;;13.40;76.80;;;;;;5046260;28;20048;-68
2023/05/20 04:43:38;;;;;;;5.63;3.35;;;13.30;76.80;;;;;;5054690;28;20127;-68
2023/05/20 04:46:06;;;;;;;5.78;3.13;;;13.40;76.80;;;;;;5038434;28;20051;-67
2023/05/20 04:48:33;;;;;;;5.78;3.13;;;13.40;76.60;;;;;;5046319;28;20143;-67
2023/05/20 04:51:02;;;;;;;5.18;2.92;;;13.40;76.40;;;;;;5039259;28;20080;-66
2023/05/20 04:53:29;;;;;;;8.02;3.38;;;13.40;76.60;;;;;;5042306;28;20059;-67
2023/05/20 04:55:57;;;;;;;6.03;3.88;;;13.40;76.80;;;;;;5043991;28;20049;-62
2023/05/20 04:58:24;;;;;;;7.20;3.45;;;13.50;76.60;;;;;;5045860;28;20044;-61
2023/05/20 05:00:55;;;;;;;5.88;3.10;;;13.50;76.60;;;;;;5058124;28;20580;-62
2023/05/20 05:03:22;;;;;;;5.50;3.30;;;13.50;76.80;;;;;;5068844;28;20056;-61
2023/05/20 05:05:49;;;;;;;5.57;3.35;;;13.50;76.80;;;;;;5047208;28;20041;-68
2023/05/20 05:08:17;;;;;;;6.97;3.63;;;13.60;76.80;;;;;;5047652;28;20632;-66
2023/05/20 05:10:49;;;;;;;6.55;3.67;;;13.60;76.40;;;;;;5044715;28;20136;-64
2023/05/20 05:13:17;;;;;;;5.72;3.25;;;13.60;76.30;;;;;;5047966;28;20069;-68
2023/05/20 05:15:44;;;;;;;8.23;3.60;;;13.60;76.20;;;;;;5050162;28;20051;-67
2023/05/20 05:18:12;;;;;;;7.43;3.28;;;13.70;76.80;;;;;;5062699;28;20119;-67
2023/05/20 05:20:39;;;;;;;6.25;3.67;;;13.70;76.80;;;;;;5050463;28;20053;-70
2023/05/20 05:23:06;;;;;;;4.97;3.38;;;13.70;76.50;;;;;;5063549;28;20488;-72
2023/05/20 05:25:35;;;;;;;7.03;3.80;;;13.70;76.90;;;;;;5046049;28;20522;-70
2023/05/20 05:28:02;;;;;;;6.03;3.50;;;13.70;76.70;;;;;;5042555;28;20048;-70
2023/05/20 05:30:28;;;;;;;7.25;3.70;;;13.70;76.60;;;;;;5056892;28;20534;-70
2023/05/20 05:32:55;;;;;;;8.50;3.85;;;13.70;76.40;;;;;;5048029;28;20055;-70
2023/05/20 05:35:22;;;;;;;5.97;3.67;;;13.80;77.20;;;;;;5041980;28;20396;-70
2023/05/20 05:37:49;;;;;;;7.82;4.18;;;13.90;76.90;;;;;;5062305;28;20043;-70
2023/05/20 05:40:16;;;;;;;6.80;3.90;;;13.90;76.70;;;;;;5047243;28;20032;-69
2023/05/20 05:42:45;;;;;;;7.18;4.25;;;14.00;76.30;;;;;;5057878;28;20135;-70
2023/05/20 05:45:12;;;;;;;7.85;4.60;;;14.00;76.50;;;;;;5060285;28;20566;-71
2023/05/20 05:47:39;;;;;;;6.70;4.15;;;14.00;76.50;;;;;;5061815;28;20069;-69
2023/05/20 05:50:06;;;;;;;8.48;4.78;;;14.10;76.70;;;;;;5047503;28;20491;-70
2023/05/20 05:52:34;;;;;;;6.32;3.83;;;14.10;76.50;;;;;;5065054;28;20785;-70
2023/05/20 05:55:03;;;;;;;6.82;4.55;;;14.20;76.30;;;;;;5042941;28;20056;-70
2023/05/20 05:57:31;;;;;;;8.77;4.60;;;14.20;75.80;;;;;;5035863;28;20491;-70
2023/05/20 06:00:00;;;;;;;7.25;4.45;;;14.20;76.20;;;;;;5044249;28;20051;-70
2023/05/20 06:02:28;;;;;;;8.23;4.72;;;14.30;76.20;;;;;;5039326;28;20057;-70
2023/05/20 06:04:55;;;;;;;8.23;4.68;;;14.30;76.20;;;;;;5048109;28;20136;-69
2023/05/20 06:07:23;;;;;;;7.50;4.95;;;14.30;75.90;;;;;;5056684;28;20228;-73
2023/05/20 06:10:04;;;;;;;;;;;;;;;;;;;;;
2023/05/20 06:12:32;;;;;;;7.63;4.90;;;14.40;75.70;;;;;;5054647;28;20602;-71
2023/05/20 06:15:01;;;;;;;8.00;4.72;;;14.50;75.80;;;;;;5064031;28;20435;-71
2023/05/20 06:17:28;;;;;;;8.05;5.25;;;14.60;75.60;;;;;;5042706;28;20119;-71
2023/05/20 06:19:54;;;;;;;8.02;5.25;;;14.70;75.60;;;;;;5064657;28;20040;-72
2023/05/20 06:22:21;;;;;;;8.00;5.15;;;14.70;75.40;;;;;;5041112;28;20116;-70
2023/05/20 06:24:48;;;;;;;8.73;5.65;;;14.70;75.10;;;;;;5046253;28;20072;-70
2023/05/20 06:27:15;;;;;;;7.97;5.13;;;14.70;75.30;;;;;;5052247;28;20083;-62
2023/05/20 06:29:45;;;;;;;8.10;5.38;;;14.80;75.40;;;;;;5062352;28;20036;-61
2023/05/20 06:32:14;;;;;;;7.82;5.40;;;14.80;75.40;;;;;;5040424;28;20066;-71
2023/05/20 06:34:41;;;;;;;7.47;5.47;;;14.90;75.10;;;;;;5041740;28;20049;-71
2023/05/20 06:37:08;;;;;;;8.82;5.40;;;15.00;75.00;;;;;;5055830;28;20543;-69
2023/05/20 06:39:35;;;;;;;8.68;5.82;;;15.10;74.40;;;;;;5046487;28;20059;-69
2023/05/20 06:42:05;;;;;;;9.77;6.30;;;15.30;74.30;;;;;;5040278;28;20535;-69
2023/05/20 06:44:35;;;;;;;7.82;5.50;;;15.50;73.70;;;;;;5046772;28;20044;-69
2023/05/20 06:47:17;;;;;;;8.57;5.70;;;15.70;73.30;;;;;;5046932;28;20472;-71
2023/05/20 06:49:46;;;;;;;9.45;5.30;;;15.80;73.00;;;;;;5040301;28;20369;-71
2023/05/20 06:52:13;;;;;;;7.25;5.40;;;16.10;72.10;;;;;;5060591;28;20047;-67
2023/05/20 06:54:41;;;;;;;9.00;5.97;;;16.20;72.20;;;;;;5037449;28;20105;-67
2023/05/20 06:57:10;;;;;;;10.30;6.43;;;16.30;71.60;;;;;;5044362;28;20045;-68
2023/05/20 06:59:38;;;;;;;10.02;6.22;;;16.40;71.30;;;;;;5060958;28;20086;-67
2023/05/20 07:02:07;;;;;;;7.65;6.20;;;16.40;71.40;;;;;;5046908;28;20045;-61
2023/05/20 07:04:51;;;;;;;9.13;6.18;;;16.50;71.10;;;;;;5049010;28;20048;-60
2023/05/20 07:07:19;;;;;;;8.18;6.25;;;16.60;71.10;;;;;;5033679;28;20041;-60
2023/05/20 07:09:46;;;;;;;10.40;6.57;;;16.70;70.70;;;;;;5046713;28;20061;-61
2023/05/20 07:12:13;;;;;;;8.77;6.32;;;16.80;70.50;;;;;;5065488;28;20041;-70
2023/05/20 07:14:40;;;;;;;10.00;6.35;;;16.90;69.90;;;;;;5035468;28;20054;-71
2023/05/20 07:17:07;;;;;;;8.88;6.03;;;17.10;69.60;;;;;;5043464;28;20545;-67
2023/05/20 07:19:34;;;;;;;9.23;6.15;;;17.20;69.30;;;;;;5037821;28;20062;-67
2023/05/20 07:22:02;;;;;;;8.43;6.18;;;17.30;68.90;;;;;;5068776;28;20076;-73
2023/05/20 07:24:36;;;;;;;8.15;6.15;;;17.40;68.60;;;;;;5060676;28;20132;-72
2023/05/20 07:27:05;;;;;;;8.07;6.15;;;17.50;68.40;;;;;;5066500;28;20032;-62
2023/05/20 07:29:32;;;;;;;10.35;6.72;;;17.50;68.70;;;;;;5056457;28;20517;-61
2023/05/20 07:31:59;;;;;;;9.30;5.90;;;17.60;68.30;;;;;;5046135;28;20048;-62
2023/05/20 07:34:26;;;;;;;9.02;6.10;;;17.80;67.80;;;;;;5053332;28;20044;-61
2023/05/20 07:36:53;;;;;;;8.48;6.18;;;17.90;67.40;;;;;;5048532;28;20086;-62
2023/05/20 07:39:23;;;;;;;8.95;6.57;;;18.00;67.50;;;;;;5042396;28;20060;-60
2023/05/20 07:41:50;;;;;;;9.65;6.45;;;18.10;67.40;;;;;;5037281;28;20083;-61
2023/05/20 07:44:20;;;;;;;8.85;6.55;;;18.20;66.70;;;;;;5054120;28;21069;-62
2023/05/20 07:46:49;;;;;;;9.70;6.45;;;18.20;66.30;;;;;;5042207;28;20049;-62
2023/05/20 07:49:16;;;;;;;8.13;6.68;;;18.20;66.00;;;;;;5041126;28;20056;-62
2023/05/20 07:51:45;;;;;;;8.90;5.75;;;18.20;66.30;;;;;;5040013;28;20511;-63
2023/05/20 07:54:14;;;;;;;8.82;6.50;;;18.20;66.40;;;;;;5045569;28;20055;-61
2023/05/20 07:56:42;;;;;;;9.23;5.75;;;18.20;66.50;;;;;;5038818;28;20037;-63
2023/05/20 07:59:11;;;;;;;;;;;18.20;66.50;;;;;;5053312;28;20045;-61
2023/05/20 08:01:42;;;;;;;8.68;6.63;;;18.00;66.60;;;;;;5043213;28;19989;-62
2023/05/20 08:04:10;;;;;;;9.35;6.80;;;17.90;66.60;;;;;;5045181;28;20056;-62
2023/05/20 08:06:38;;;;;;;8.63;6.43;;;17.70;66.90;;;;;;5048667;28;20091;-63
2023/05/20 08:09:08;;;;;;;9.90;7.15;;;17.60;67.10;;;;;;5048232;28;20052;-63
2023/05/20 08:11:40;;;;;;;9.35;7.10;;;17.60;67.60;;;;;;5046175;28;21349;-63
2023/05/20 08:14:08;;;;;;;9.70;6.60;;;17.60;67.60;;;;;;5046084;28;20048;-63
2023/05/20 08:16:41;;;;;;;8.63;6.15;;;17.70;67.80;;;;;;5056511;28;20052;-62
2023/05/20 08:19:09;;;;;;;10.85;7.15;;;17.70;67.80;;;;;;5040276;28;20047;-63
2023/05/20 08:21:36;;;;;;;9.18;7.05;;;17.60;67.70;;;;;;5068890;28;20054;-62
2023/05/20 08:24:05;;;;;;;9.77;6.80;;;17.70;67.80;;;;;;5048616;28;20136;-62
2023/05/20 08:26:32;;;;;;;9.00;6.85;;;17.80;67.70;;;;;;5039538;28;20041;-61
2023/05/20 08:29:00;;;;;;;10.43;8.23;;;17.80;67.60;;;;;;5044456;28;20045;-62
2023/05/20 08:31:28;;;;;;;8.25;6.47;;;17.80;67.50;;;;;;5062671;28;20051;-62
2023/05/20 08:33:55;;;;;;;10.93;7.30;;;17.80;67.60;;;;;;5047200;28;20057;-61
2023/05/20 08:36:22;;;;;;;10.75;7.63;;;17.80;67.50;;;;;;5063516;28;20053;-62
2023/05/20 08:38:49;;;;;;;9.38;6.47;;;17.60;67.50;;;;;;5041497;28;20048;-60
2023/05/20 08:41:16;;;;;;;8.55;6.60;;;17.60;67.60;;;;;;5041080;28;20048;-72
2023/05/20 08:43:46;;;;;;;11.65;7.28;;;17.60;67.90;;;;;;5047051;28;20037;-72
2023/05/20 08:46:14;;;;;;;10.52;7.20;;;17.60;67.90;;;;;;5046382;28;20036;-62
2023/05/20 08:48:43;;;;;;;11.77;7.13;;;17.70;67.90;;;;;;5062806;28;20041;-62
2023/05/20 08:51:10;;;;;;;9.82;6.85;;;17.90;67.80;;;;;;5058721;28;20060;-68
2023/05/20 08:53:37;;;;;;;9.98;7.60;;;17.90;67.60;;;;;;5062691;28;20044;-67
2023/05/20 08:56:05;;;;;;;12.77;7.30;;;17.90;67.30;;;;;;5061528;28;20037;-66
2023/05/20 08:58:32;;;;;;;9.85;7.00;;;17.90;67.20;;;;;;5065335;28;20041;-66
2023/05/20 09:00:59;;;;;;;9.52;7.32;;;17.90;67.30;;;;;;5059573;28;20052;-67
2023/05/20 09:03:26;;;;;;;11.00;7.50;;;18.00;67.30;;;;;;5062121;28;20446;-68
2023/05/20 09:06:04;;;;;;;9.52;7.57;;;18.20;67.00;;;;;;5067710;28;20045;-62
2023/05/20 09:08:31;;;;;;;10.88;7.18;;;18.40;66.60;;;;;;5063409;28;20052;-61
2023/05/20 09:10:58;;;;;;;11.82;7.65;;;18.50;66.20;;;;;;5067920;28;20053;-69
2023/05/20 09:13:25;;;;;;;9.48;7.03;;;18.60;66.00;;;;;;5066794;28;20118;-67
2023/05/20 09:15:52;;;;;;;8.95;7.07;;;18.60;65.70;;;;;;5061037;28;20048;-58
2023/05/20 09:18:19;;;;;;;8.00;6.70;;;18.60;65.60;;;;;;5066074;28;20495;-61
2023/05/20 09:20:51;;;;;;;9.40;7.15;;;18.60;65.70;;;;;;5062035;28;20515;-67
2023/05/20 09:23:20;;;;;;;8.18;6.63;;;18.60;65.90;;;;;;5062383;28;20075;-67
2023/05/20 09:25:50;;;;;;;9.88;7.43;;;18.70;65.80;;;;;;5059947;28;20057;-62
2023/05/20 09:28:18;;;;;;;;;;;18.90;65.20;;;;;;5062305;28;20048;-61
2023/05/20 09:30:48;;;;;;;9.00;6.90;;;19.20;65.10;;;;;;5057795;28;19965;-72
2023/05/20 09:33:15;;;;;;;;;;;19.40;65.10;;;;;;5065372;28;20130;-72
2023/05/20 09:35:42;;;;;;;9.55;6.90;;;19.70;65.20;;;;;;5064171;28;20033;-63
2023/05/20 09:38:10;;;;;;;10.25;7.20;;;19.90;64.30;;;;;;5061089;28;20463;-62
2023/05/20 09:40:39;;;;;;;9.73;7.38;;;20.00;63.30;;;;;;5060755;28;20136;-77
2023/05/20 09:43:07;;;;;;;10.32;6.80;;;20.10;63.10;;;;;;5065145;28;20064;-78
2023/05/20 09:45:34;;;;;;;10.20;6.60;;;20.10;63.30;;;;;;5061226;28;20106;-62
2023/05/20 09:48:02;;;;;;;10.60;6.65;;;20.10;62.60;;;;;;5067060;28;20412;-62
2023/05/20 09:50:30;;;;;;;8.80;5.97;;;20.10;61.80;;;;;;5064647;28;20062;-68
2023/05/20 09:53:01;;;;;;;8.20;5.97;;;20.10;62.00;;;;;;5061418;28;20045;-67
2023/05/20 09:55:29;;;;;;;8.40;6.10;;;20.00;61.80;;;;;;5057118;28;20056;-70
2023/05/20 09:58:01;;;;;;;7.97;6.18;;;19.80;62.10;;;;;;5061727;28;20553;-71
2023/05/20 10:00:29;;;;;;;8.68;6.13;;;19.60;62.00;;;;;;5060927;28;20495;-63
2023/05/20 10:03:02;;;;;;;6.65;5.70;;;19.50;62.20;;;;;;5062676;28;20048;-62
2023/05/20 10:05:32;;;;;;;7.95;5.90;;;19.40;62.20;;;;;;5066188;28;20045;-61
2023/05/20 10:08:35;;;;;;;9.15;6.65;;;19.30;62.60;;;;;;5066103;28;20483;-62
2023/05/20 10:11:13;;;;;;;7.63;5.95;;;19.20;62.90;;;;;;5052511;28;20060;-73
2023/05/20 10:14:05;;;;;;;7.90;6.03;;;19.10;62.80;;;;;;5064378;28;20065;-73
2023/05/20 10:16:42;;;;;;;9.68;6.13;;;19.10;63.10;;;;;;5062336;28;20613;-68
2023/05/20 10:19:14;;;;;;;8.82;5.90;;;19.30;63.20;;;;;;5065907;28;20075;-67
2023/05/20 10:21:41;;;;;;;9.10;6.57;;;19.30;63.00;;;;;;5064087;28;20044;-67
2023/05/20 10:24:09;;;;;;;8.00;6.05;;;19.20;63.30;;;;;;5058736;28;20048;-67
2023/05/20 10:26:41;;;;;;;9.07;6.38;;;19.20;63.00;;;;;;5057270;28;20128;-67
2023/05/20 10:29:19;;;;;;;10.18;6.72;;;19.20;63.00;;;;;;5064785;28;20071;-67
2023/05/20 10:31:50;;;;;;;9.80;7.40;;;19.10;63.20;;;;;;5063808;28;20052;-67
2023/05/20 10:34:23;;;;;;;9.25;6.93;;;19.10;62.90;;;;;;5068523;28;20463;-68
2023/05/20 10:36:58;;;;;;;10.35;6.90;;;19.10;63.00;;;;;;5062662;28;20048;-67
2023/05/20 10:39:32;;;;;;;9.88;6.68;;;19.20;63.20;;;;;;5065211;28;20049;-68
2023/05/20 10:42:07;;;;;;;9.23;6.80;;;19.40;63.00;;;;;;5065694;28;20052;-71
2023/05/20 10:44:45;;;;;;;9.43;7.32;;;19.60;62.80;;;;;;5053390;28;20419;-69
2023/05/20 10:47:13;;;;;;;8.75;6.55;;;19.60;62.50;;;;;;5061698;28;20051;-61
2023/05/20 10:49:44;;;;;;;9.85;6.85;;;19.70;62.20;;;;;;5066191;28;20411;-62
2023/05/20 10:52:11;;;;;;;8.98;6.18;;;19.90;62.40;;;;;;5055423;28;20559;-61
2023/05/20 10:54:45;;;;;;;7.88;6.22;;;20.10;62.00;;;;;;5059152;28;20033;-62
2023/05/20 10:57:12;;;;;;;7.68;6.22;;;20.20;61.70;;;;;;5061848;28;20060;-61
2023/05/20 10:59:39;;;;;;;8.80;6.45;;;20.30;61.20;;;;;;5060594;28;20059;-60
2023/05/20 11:02:10;;;;;;;8.93;6.80;;;20.50;60.90;;;;;;5056645;28;20082;-62
2023/05/20 11:04:37;;;;;;;10.60;6.90;;;20.60;60.90;;;;;;5062430;28;20166;-63
2023/05/20 11:07:05;;;;;;;9.80;6.60;;;20.70;60.40;;;;;;5064854;28;20040;-62
2023/05/20 11:09:33;;;;;;;9.80;7.05;;;20.80;59.50;;;;;;5067086;28;20056;-62
2023/05/20 11:12:00;;;;;;;9.27;6.90;;;20.90;59.60;;;;;;5063160;28;20048;-62
2023/05/20 11:14:28;;;;;;;8.10;6.22;;;21.00;59.50;;;;;;5065696;28;20492;-62
2023/05/20 11:16:57;;;;;;;8.48;6.65;;;21.00;59.60;;;;;;5060812;28;20045;-61
2023/05/20 11:19:25;;;;;;;8.20;6.22;;;21.10;59.30;;;;;;5061332;28;20053;-61
2023/05/20 11:21:52;;;;;;;8.27;6.70;;;21.00;59.20;;;;;;5057173;28;20075;-63
2023/05/20 11:24:25;;;;;;;8.50;6.78;;;21.00;58.90;;;;;;5064485;28;20057;-61
2023/05/20 11:26:53;;;;;;;8.48;6.65;;;21.10;59.10;;;;;;5061731;28;20056;-60
2023/05/20 11:29:21;;;;;;;8.65;6.07;;;21.20;59.10;;;;;;5065551;28;20049;-63
2023/05/20 11:31:49;;;;;;;10.30;6.75;;;21.10;58.50;;;;;;5061209;28;20049;-61
2023/05/20 11:34:16;;;;;;;7.47;5.93;;;21.20;58.60;;;;;;5065375;28;20051;-62
2023/05/20 11:36:45;;;;;;;10.18;6.90;;;21.30;58.40;;;;;;5065068;28;20051;-66
2023/05/20 11:39:13;;;;;;;8.63;6.50;;;21.40;58.70;;;;;;5065868;28;20052;-67
2023/05/20 11:41:41;;;;;;;10.40;6.45;;;21.50;58.60;;;;;;5062844;28;20069;-71
2023/05/20 11:44:10;;;;;;;9.20;7.20;;;21.50;57.90;;;;;;5063071;28;20049;-71
2023/05/20 11:46:42;;;;;;;9.27;6.40;;;21.40;57.90;;;;;;5065405;28;20060;-71
2023/05/20 11:49:09;;;;;;;7.93;6.07;;;21.40;57.90;;;;;;5069310;28;20102;-71
2023/05/20 11:51:37;;;;;;;9.60;6.72;;;21.50;58.10;;;;;;5062389;28;20053;-67
2023/05/20 11:54:07;;;;;;;10.18;7.10;;;21.60;58.00;;;;;;5062556;28;20044;-67
2023/05/20 11:56:35;;;;;;;;;;;21.60;58.20;;;;;;5066895;28;20055;-67
2023/05/20 11:59:03;;;;;;;9.25;7.00;;;21.70;58.00;;;;;;5064917;28;20019;-68
2023/05/20 12:01:32;;;;;;;8.63;6.75;;;21.80;57.60;;;;;;5065372;28;20427;-67
2023/05/20 12:03:59;;;;;;;8.38;6.63;;;21.90;57.80;;;;;;5069745;28;20546;-69
2023/05/20 12:06:26;;;;;;;9.32;6.20;;;22.00;57.60;;;;;;5065494;28;20047;-67
2023/05/20 12:08:53;;;;;;;8.52;6.57;;;22.00;57.70;;;;;;5068055;28;20167;-68
2023/05/20 12:11:21;;;;;;;9.07;6.50;;;22.10;57.60;;;;;;5067679;28;20044;-68
2023/05/20 12:13:48;;;;;;;8.82;6.03;;;22.10;57.30;;;;;;5069081;28;20051;-67
2023/05/20 12:16:15;;;;;;;9.27;6.90;;;22.10;56.90;;;;;;5062775;28;20045;-68
2023/05/20 12:18:42;;;;;;;8.65;6.43;;;22.10;56.60;;;;;;5071046;28;20535;-67
2023/05/20 12:21:09;;;;;;;8.35;6.47;;;22.20;56.50;;;;;;5065133;28;20079;-68
2023/05/20 12:23:36;;;;;;;8.07;6.60;;;22.10;56.90;;;;;;5068112;28;20040;-68
2023/05/20 12:26:04;;;;;;;7.50;6.03;;;22.10;56.80;;;;;;5059951;28;20433;-67
2023/05/20 12:28:33;;;;;;;10.23;6.97;;;22.10;56.80;;;;;;5066384;28;20041;-67
2023/05/20 12:31:00;;;;;;;7.47;6.50;;;22.20;57.10;;;;;;5064327;28;20048;-67
2023/05/20 12:33:27;;;;;;;8.13;6.55;;;22.20;56.60;;;;;;5065841;28;20114;-67
2023/05/20 12:35:54;;;;;;;8.20;6.75;;;22.30;56.60;;;;;;5060437;28;20131;-67
2023/05/20 12:38:21;;;;;;;10.13;7.35;;;22.20;56.50;;;;;;5063691;28;20519;-68
2023/05/20 12:40:48;;;;;;;11.52;6.95;;;22.10;56.40;;;;;;5068088;28;20045;-67
2023/05/20 12:43:15;;;;;;;9.32;6.88;;;22.10;56.00;;;;;;5069114;28;20094;-67
2023/05/20 12:45:44;;;;;;;10.23;6.72;;;22.20;56.20;;;;;;5065703;28;20052;-68
2023/05/20 12:48:11;;;;;;;8.80;6.78;;;22.30;56.50;;;;;;5064738;28;20471;-69
2023/05/20 12:50:38;;;;;;;8.40;6.75;;;22.40;56.50;;;;;;5062446;28;20037;-69
2023/05/20 12:53:05;;;;;;;10.48;7.10;;;22.40;56.20;;;;;;5059949;28;20044;-68